^^
Your Local Weather - Clay, NY Station Historical Data
Daily Summary for June 13, 2017 Units:  English    Metric   Both
« Previous Day
Next Day »
Daily Weekly Monthly Yearly Custom
  High: Low: Average:
Temperature: 81.5 °F 61.4 °F 73.1 °F
Dew Point: 69.1 °F 59.1 °F 64.1 °F
Humidity: 92% 58% 75%
Wind Speed: 4.0mph 0.0mph 0.8mph
Wind Gust: 10.0mph - -
Wind- - West
Pressure: 29.95 in 29.84 in -
Precipitation: 0.15 in    
Historical Graphs
 
 
Tabular Data for June 13, 2017
Time Temperature Dew Point Pressure Wind Wind Speed Wind Gust Humidity Rainfall Rate (Hourly) solar
00:00 70.0 °F 63.2 °F 29.86 in Calm     79% 0.00 in 0 W/m2
00:06 70.0 °F 63.2 °F 29.86 in Calm     79% 0.00 in 0 W/m2
00:12 70.0 °F 62.8 °F 29.86 in Calm     78% 0.00 in 0 W/m2
00:18 70.1 °F 63.6 °F 29.85 in Calm     80% 0.00 in 0 W/m2
00:24 69.9 °F 63.4 °F 29.85 in Calm     80% 0.00 in 0 W/m2
00:30 69.6 °F 62.8 °F 29.85 in Calm     79% 0.00 in 0 W/m2
00:36 69.4 °F 63.0 °F 29.84 in Calm     80% 0.00 in 0 W/m2
00:42 69.3 °F 62.5 °F 29.85 in Calm     79% 0.00 in 0 W/m2
00:48 69.2 °F 62.8 °F 29.85 in Calm     80% 0.00 in 0 W/m2
00:56 69.0 °F 62.2 °F 29.85 in Calm     79% 0.00 in 0 W/m2
01:02 68.9 °F 62.1 °F 29.85 in Calm     79% 0.00 in 0 W/m2
01:08 68.8 °F 61.7 °F 29.86 in Calm     78% 0.00 in 0 W/m2
01:14 68.8 °F 62.0 °F 29.86 in Calm     79% 0.00 in 0 W/m2
01:20 68.7 °F 61.9 °F 29.86 in Calm     79% 0.00 in 0 W/m2
01:26 68.6 °F 61.8 °F 29.86 in Calm     79% 0.00 in 0 W/m2
01:32 68.6 °F 62.2 °F 29.86 in Calm     80% 0.00 in 0 W/m2
01:38 68.6 °F 62.5 °F 29.86 in Calm     81% 0.00 in 0 W/m2
01:44 68.6 °F 61.8 °F 29.86 in Calm     79% 0.00 in 0 W/m2
01:50 68.6 °F 62.5 °F 29.86 in Calm     81% 0.00 in 0 W/m2
01:56 68.9 °F 63.2 °F 29.85 in Calm     82% 0.00 in 0 W/m2
02:02 69.4 °F 63.7 °F 29.85 in Calm     82% 0.00 in 0 W/m2
02:08 69.9 °F 63.4 °F 29.86 in Calm   2.0 mph 80% 0.00 in 0 W/m2
02:14 71.2 °F 62.5 °F 29.85 in Calm   1.0 mph 74% 0.00 in 0 W/m2
02:20 72.4 °F 62.5 °F 29.85 in WSW 1.0 mph 2.0 mph 71% 0.00 in 0 W/m2
02:26 73.7 °F 62.5 °F 29.85 in WSW 1.0 mph 2.0 mph 68% 0.00 in 0 W/m2
02:32 74.2 °F 62.5 °F 29.85 in WSW 1.0 mph 1.0 mph 67% 0.00 in 0 W/m2
02:38 74.5 °F 62.4 °F 29.84 in Calm   2.0 mph 66% 0.00 in 0 W/m2
02:42 74.7 °F 62.1 °F 29.84 in WSW 1.0 mph 2.0 mph 65% 0.00 in 0 W/m2
02:48 74.9 °F 62.3 °F 29.84 in WSW 1.0 mph 2.0 mph 65% 0.00 in 0 W/m2
02:54 75.1 °F 62.1 °F 29.84 in WSW 1.0 mph 1.0 mph 64% 0.00 in 0 W/m2
03:00 75.4 °F 62.4 °F 29.84 in WSW 1.0 mph 1.0 mph 64% 0.00 in 0 W/m2
03:06 75.7 °F 62.2 °F 29.84 in WSW 1.0 mph 6.0 mph 63% 0.00 in 0 W/m2
03:12 75.9 °F 62.4 °F 29.84 in SW 1.0 mph 1.0 mph 63% 0.00 in 0 W/m2
03:18 76.1 °F 62.1 °F 29.84 in WSW 2.0 mph 2.0 mph 62% 0.00 in 0 W/m2
03:24 76.2 °F 62.2 °F 29.84 in WSW 1.0 mph 1.0 mph 62% 0.00 in 0 W/m2
03:30 76.3 °F 62.3 °F 29.84 in WSW 1.0 mph 1.0 mph 62% 0.00 in 0 W/m2
03:36 76.2 °F 62.2 °F 29.84 in WSW 1.0 mph 3.0 mph 62% 0.00 in 0 W/m2
03:42 76.1 °F 62.1 °F 29.84 in Calm     62% 0.00 in 0 W/m2
03:48 76.0 °F 62.0 °F 29.84 in Calm     62% 0.00 in 0 W/m2
03:54 75.9 °F 61.9 °F 29.84 in Calm   2.0 mph 62% 0.00 in 0 W/m2
04:00 76.0 °F 62.0 °F 29.84 in WSW 1.0 mph 1.0 mph 62% 0.00 in 0 W/m2
04:06 76.3 °F 62.3 °F 29.84 in WSW 1.0 mph 3.0 mph 62% 0.00 in 0 W/m2
04:12 76.3 °F 61.9 °F 29.84 in Calm     61% 0.00 in 0 W/m2
04:18 76.3 °F 62.3 °F 29.84 in Calm     62% 0.00 in 0 W/m2
04:24 76.3 °F 61.9 °F 29.84 in WSW 1.0 mph 1.0 mph 61% 0.00 in 0 W/m2
04:30 76.4 °F 62.0 °F 29.84 in Calm   1.0 mph 61% 0.00 in 0 W/m2
04:36 76.4 °F 62.0 °F 29.84 in WSW 1.0 mph 3.0 mph 61% 0.00 in 0 W/m2
04:42 76.5 °F 62.0 °F 29.84 in WSW 1.0 mph 1.0 mph 61% 0.00 in 0 W/m2
04:48 76.4 °F 62.0 °F 29.84 in Calm   1.0 mph 61% 0.00 in 0 W/m2
04:54 76.2 °F 62.2 °F 29.84 in Calm     62% 0.00 in 0 W/m2
05:00 75.9 °F 62.4 °F 29.84 in Calm     63% 0.00 in 0 W/m2
05:06 75.8 °F 62.8 °F 29.84 in Calm     64% 0.00 in 0 W/m2
05:12 75.5 °F 62.9 °F 29.84 in Calm   1.0 mph 65% 0.00 in 0 W/m2
05:18 75.1 °F 63.0 °F 29.85 in Calm   1.0 mph 66% 0.00 in 0 W/m2
05:26 74.5 °F 62.8 °F 29.86 in Calm     67% 0.00 in 0 W/m2
05:32 74.1 °F 62.9 °F 29.85 in Calm     68% 0.00 in 5 W/m2
05:38 73.8 °F 62.6 °F 29.86 in Calm     68% 0.00 in 7 W/m2
05:44 73.7 °F 62.9 °F 29.86 in Calm     69% 0.00 in 11 W/m2
05:50 73.6 °F 63.6 °F 29.86 in Calm     71% 0.00 in 14 W/m2
05:56 73.5 °F 63.5 °F 29.86 in Calm     71% 0.00 in 14 W/m2
06:03 73.3 °F 64.5 °F 29.86 in Calm     74% 0.00 in 19 W/m2
06:08 73.1 °F 65.1 °F 29.86 in Calm     76% 0.00 in 23 W/m2
06:14 72.6 °F 64.2 °F 29.87 in Calm     75% 0.00 in 25 W/m2
06:20 72.1 °F 63.7 °F 29.87 in Calm   1.0 mph 75% 0.00 in 23 W/m2
06:26 71.8 °F 64.2 °F 29.87 in Calm   1.0 mph 77% 0.00 in 26 W/m2
06:32 71.7 °F 64.5 °F 29.87 in Calm     78% 0.00 in 33 W/m2
06:38 71.5 °F 63.9 °F 29.88 in Calm   1.0 mph 77% 0.00 in 30 W/m2
06:44 71.6 °F 64.0 °F 29.88 in Calm     77% 0.00 in 26 W/m2
06:56 71.7 °F 63.7 °F 29.88 in Calm     76% 0.00 in 56 W/m2
07:02 71.8 °F 63.8 °F 29.88 in Calm     76% 0.00 in 60 W/m2
07:08 72.0 °F 64.4 °F 29.88 in Calm     77% 0.00 in 70 W/m2
07:14 72.2 °F 64.6 °F 29.88 in Calm     77% 0.00 in 100 W/m2
07:20 72.6 °F 65.0 °F 29.87 in Calm     77% 0.00 in 163 W/m2
07:26 73.2 °F 65.6 °F 29.87 in Calm     77% 0.00 in 171 W/m2
07:32 74.0 °F 65.2 °F 29.87 in Calm     74% 0.00 in 195 W/m2
07:38 74.5 °F 65.3 °F 29.87 in Calm     73% 0.00 in 213 W/m2
07:50 75.8 °F 65.3 °F 29.87 in Calm     70% 0.00 in 258 W/m2
07:56 76.0 °F 64.2 °F 29.87 in WNW 1.0 mph 1.0 mph 67% 0.00 in 248 W/m2
08:02 76.0 °F 65.1 °F 29.87 in Calm   1.0 mph 69% 0.00 in 114 W/m2
08:08 75.4 °F 64.1 °F 29.87 in NNW 1.0 mph 4.0 mph 68% 0.00 in 134 W/m2
08:14 75.0 °F 64.1 °F 29.88 in NNW 1.0 mph 1.0 mph 69% 0.00 in 105 W/m2
08:20 74.7 °F 64.3 °F 29.88 in NNW 1.0 mph 3.0 mph 70% 0.00 in 109 W/m2
08:26 74.6 °F 64.6 °F 29.87 in NNW 1.0 mph 3.0 mph 71% 0.00 in 364 W/m2
08:32 75.0 °F 64.5 °F 29.88 in NNW 1.0 mph 3.0 mph 70% 0.00 in 67 W/m2
08:38 75.0 °F 65.0 °F 29.88 in NNW 1.0 mph 3.0 mph 71% 0.00 in 109 W/m2
08:44 74.7 °F 64.7 °F 29.89 in Calm   1.0 mph 71% 0.00 in 100 W/m2
08:50 74.5 °F 64.9 °F 29.88 in Calm     72% 0.00 in 193 W/m2
08:56 74.5 °F 65.3 °F 29.89 in NNW 1.0 mph 3.0 mph 73% 0.00 in 144 W/m2
09:02 74.5 °F 64.9 °F 29.88 in NNW 1.0 mph 1.0 mph 72% 0.00 in 137 W/m2
09:08 74.4 °F 64.4 °F 29.89 in NNW 1.0 mph 2.0 mph 71% 0.00 in 63 W/m2
09:14 74.0 °F 64.0 °F 29.89 in Calm   1.0 mph 71% 0.00 in 63 W/m2
09:20 73.6 °F 64.4 °F 29.89 in Calm     73% 0.00 in 69 W/m2
09:26 73.5 °F 64.7 °F 29.89 in Calm   1.0 mph 74% 0.00 in 139 W/m2
09:32 73.6 °F 64.8 °F 29.89 in Calm     74% 0.00 in 149 W/m2
09:38 73.7 °F 64.9 °F 29.89 in Calm     74% 0.00 in 297 W/m2
09:44 74.2 °F 65.0 °F 29.89 in Calm   3.0 mph 73% 0.00 in 255 W/m2
09:50 74.6 °F 65.4 °F 29.88 in West 1.0 mph 1.0 mph 73% 0.00 in 642 W/m2
09:56 75.5 °F 66.6 °F 29.89 in WSW 1.0 mph 3.0 mph 74% 0.00 in 628 W/m2
10:02 76.5 °F 66.8 °F 29.88 in Calm   3.0 mph 72% 0.00 in 464 W/m2
10:08 77.0 °F 66.5 °F 29.89 in WSW 1.0 mph 3.0 mph 70% 0.00 in 809 W/m2
10:14 77.4 °F 66.8 °F 29.89 in SW 1.0 mph 1.0 mph 70% 0.00 in 295 W/m2
10:22 77.5 °F 66.9 °F 29.89 in Calm   1.0 mph 70% 0.00 in 269 W/m2
10:28 78.3 °F 67.3 °F 29.89 in Calm   1.0 mph 69% 0.00 in 334 W/m2
10:34 78.2 °F 65.9 °F 29.89 in Calm     66% 0.00 in 250 W/m2
10:40 77.8 °F 66.4 °F 29.89 in Calm     68% 0.00 in 239 W/m2
10:46 77.6 °F 65.8 °F 29.89 in Calm     67% 0.00 in 207 W/m2
10:52 77.2 °F 66.2 °F 29.90 in NNW 1.0 mph 2.0 mph 69% 0.00 in 204 W/m2
10:58 77.1 °F 67.0 °F 29.90 in NW 2.0 mph 2.0 mph 71% 0.00 in 346 W/m2
11:04 77.4 °F 67.3 °F 29.89 in NNW 2.0 mph 4.0 mph 71% 0.00 in 234 W/m2
11:10 77.0 °F 66.5 °F 29.89 in NNW 2.0 mph 2.0 mph 70% 0.00 in 373 W/m2
11:16 77.5 °F 66.9 °F 29.89 in NNW 2.0 mph 3.0 mph 70% 0.00 in 410 W/m2
11:22 77.9 °F 66.9 °F 29.89 in NW 1.0 mph 2.0 mph 69% 0.00 in 399 W/m2
11:28 78.4 °F 66.5 °F 29.89 in NW 2.0 mph 3.0 mph 67% 0.00 in 411 W/m2
11:34 77.9 °F 66.9 °F 29.89 in NW 2.0 mph 2.0 mph 69% 0.00 in 320 W/m2
11:40 77.7 °F 66.7 °F 29.88 in NW 1.0 mph 1.0 mph 69% 0.00 in 403 W/m2
11:46 77.9 °F 67.3 °F 29.88 in NW 1.0 mph 1.0 mph 70% 0.00 in 301 W/m2
11:52 77.3 °F 66.7 °F 29.89 in NW 1.0 mph 1.0 mph 70% 0.00 in 195 W/m2
11:58 76.7 °F 66.2 °F 29.89 in NW 1.0 mph 2.0 mph 70% 0.00 in 239 W/m2
12:04 77.3 °F 68.4 °F 29.90 in NW 1.0 mph 1.0 mph 74% 0.00 in 738 W/m2
12:10 77.9 °F 66.9 °F 29.90 in WNW 2.0 mph 3.0 mph 69% 0.00 in 346 W/m2
12:16 78.7 °F 68.9 °F 29.90 in NW 3.0 mph 4.0 mph 72% 0.00 in 896 W/m2
12:22 79.2 °F 67.3 °F 29.89 in NNW 3.0 mph 5.0 mph 67% 0.00 in 981 W/m2
12:28 79.5 °F 68.4 °F 29.89 in NW 3.0 mph 5.0 mph 69% 0.00 in 972 W/m2
12:34 79.7 °F 66.0 °F 29.89 in WNW 2.0 mph 4.0 mph 63% 0.00 in 944 W/m2
12:40 79.6 °F 65.0 °F 29.89 in North 3.0 mph 3.0 mph 61% 0.00 in 937 W/m2
12:46 79.7 °F 66.9 °F 29.89 in WSW 2.0 mph 5.0 mph 65% 0.00 in 930 W/m2
12:52 80.3 °F 66.6 °F 29.89 in NW 2.0 mph 4.0 mph 63% 0.00 in 918 W/m2
12:58 80.6 °F 66.8 °F 29.89 in West 2.0 mph 4.0 mph 63% 0.00 in 935 W/m2
13:04 80.8 °F 67.0 °F 29.89 in NW 1.0 mph 2.0 mph 63% 0.00 in 928 W/m2
13:10 81.5 °F 65.8 °F 29.89 in West 1.0 mph 2.0 mph 59% 0.00 in 935 W/m2
13:16 81.3 °F 68.0 °F 29.89 in West 1.0 mph 2.0 mph 64% 0.00 in 916 W/m2
13:22 81.5 °F 68.1 °F 29.89 in West 2.0 mph 2.0 mph 64% 0.00 in 879 W/m2
13:28 81.1 °F 69.1 °F 29.89 in NW 3.0 mph 4.0 mph 67% 0.00 in 893 W/m2
13:34 80.6 °F 65.9 °F 29.89 in NNW 3.0 mph 9.0 mph 61% 0.00 in 831 W/m2
13:40 79.2 °F 64.6 °F 29.89 in NW 4.0 mph 4.0 mph 61% 0.00 in 886 W/m2
13:46 79.2 °F 65.1 °F 29.89 in NW 4.0 mph 5.0 mph 62% 0.00 in 503 W/m2
13:52 79.5 °F 63.9 °F 29.89 in NNW 3.0 mph 6.0 mph 59% 0.00 in 468 W/m2
13:58 79.4 °F 63.3 °F 29.88 in NNW 3.0 mph 6.0 mph 58% 0.00 in 777 W/m2
14:04 79.3 °F 64.7 °F 29.89 in NNW 2.0 mph 4.0 mph 61% 0.00 in 520 W/m2
14:10 78.9 °F 63.8 °F 29.89 in WSW 2.0 mph 2.0 mph 60% 0.00 in 501 W/m2
14:16 79.3 °F 64.7 °F 29.89 in West 2.0 mph 4.0 mph 61% 0.00 in 492 W/m2
14:22 79.3 °F 63.2 °F 29.88 in NW 2.0 mph 2.0 mph 58% 0.00 in 714 W/m2
14:28 79.1 °F 65.0 °F 29.89 in NW 1.0 mph 2.0 mph 62% 0.00 in 635 W/m2
14:34 79.0 °F 63.9 °F 29.88 in NW 1.0 mph 3.0 mph 60% 0.00 in 336 W/m2
14:40 78.6 °F 64.0 °F 29.88 in NW 2.0 mph 2.0 mph 61% 0.00 in 357 W/m2
14:46 78.9 °F 63.8 °F 29.89 in NNW 2.0 mph 3.0 mph 60% 0.00 in 661 W/m2
14:52 78.7 °F 64.1 °F 29.89 in NW 4.0 mph 10.0 mph 61% 0.00 in 802 W/m2
14:58 79.5 °F 65.3 °F 29.88 in NNW 3.0 mph 10.0 mph 62% 0.00 in 789 W/m2
15:04 80.2 °F 65.1 °F 29.88 in NNW 2.0 mph 3.0 mph 60% 0.00 in 533 W/m2
15:10 79.3 °F 64.2 °F 29.87 in NNW 1.0 mph 1.0 mph 60% 0.00 in 657 W/m2
15:16 79.5 °F 68.4 °F 29.87 in NW 1.0 mph 4.0 mph 69% 0.00 in 849 W/m2
15:22 79.8 °F 66.1 °F 29.87 in West 1.0 mph 1.0 mph 63% 0.00 in 425 W/m2
15:28 79.3 °F 65.1 °F 29.88 in NW 1.0 mph 2.0 mph 62% 0.00 in 443 W/m2
15:34 79.5 °F 66.3 °F 29.88 in North 1.0 mph 1.0 mph 64% 0.00 in 299 W/m2
15:40 78.3 °F 63.3 °F 29.88 in NNE 2.0 mph 9.0 mph 60% 0.00 in 251 W/m2
15:46 77.8 °F 63.3 °F 29.89 in North 3.0 mph 9.0 mph 61% 0.00 in 213 W/m2
15:52 77.3 °F 63.3 °F 29.88 in NW 3.0 mph 5.0 mph 62% 0.00 in 274 W/m2
15:58 77.3 °F 63.3 °F 29.88 in WNW 3.0 mph 5.0 mph 62% 0.00 in 229 W/m2
16:04 77.3 °F 63.7 °F 29.88 in NW 2.0 mph 3.0 mph 63% 0.00 in 253 W/m2
16:10 77.2 °F 62.7 °F 29.88 in NNW 2.0 mph 2.0 mph 61% 0.00 in 241 W/m2
16:16 77.3 °F 62.8 °F 29.88 in WNW 2.0 mph 4.0 mph 61% 0.00 in 290 W/m2
16:22 77.7 °F 64.5 °F 29.88 in NW 2.0 mph 2.0 mph 64% 0.00 in 454 W/m2
16:28 78.7 °F 63.6 °F 29.89 in NW 1.0 mph 2.0 mph 60% 0.00 in 473 W/m2
16:34 78.7 °F 65.9 °F 29.88 in WNW 2.0 mph 3.0 mph 65% 0.00 in 338 W/m2
16:40 78.1 °F 65.8 °F 29.88 in NW 2.0 mph 2.0 mph 66% 0.00 in 181 W/m2
16:46 77.0 °F 65.2 °F 29.88 in NNE 2.0 mph 6.0 mph 67% 0.00 in 185 W/m2
16:52 76.1 °F 65.6 °F 29.88 in WNW 4.0 mph 5.0 mph 70% 0.00 in 144 W/m2
16:58 75.4 °F 65.7 °F 29.88 in NNE 4.0 mph 6.0 mph 72% 0.00 in 158 W/m2
17:04 75.3 °F 65.6 °F 29.88 in NW 3.0 mph 7.0 mph 72% 0.00 in 118 W/m2
17:10 74.7 °F 65.5 °F 29.89 in North 4.0 mph 4.0 mph 73% 0.00 in 121 W/m2
17:16 74.0 °F 65.2 °F 29.89 in NNE 4.0 mph 7.0 mph 74% 0.00 in 83 W/m2
17:22 73.5 °F 65.5 °F 29.89 in NW 4.0 mph 5.0 mph 76% 0.00 in 77 W/m2
17:28 73.0 °F 65.4 °F 29.89 in NNW 4.0 mph 5.0 mph 77% 0.00 in 72 W/m2
17:32 72.8 °F 65.5 °F 29.90 in NW 3.0 mph 3.0 mph 78% 0.00 in 60 W/m2
17:38 72.5 °F 65.2 °F 29.89 in NW 2.0 mph 5.0 mph 78% 0.00 in 46 W/m2
17:44 72.1 °F 65.2 °F 29.89 in NNE 2.0 mph 4.0 mph 79% 0.00 in 23 W/m2
17:50 71.3 °F 65.2 °F 29.89 in North 3.0 mph 3.0 mph 81% 0.19 in 37 W/m2
17:56 70.3 °F 65.2 °F 29.89 in North 2.0 mph 4.0 mph 84% 0.12 in 54 W/m2
18:02 69.7 °F 65.3 °F 29.90 in NW 2.0 mph 2.0 mph 86% 0.06 in 32 W/m2
18:08 69.3 °F 65.3 °F 29.90 in North 1.0 mph 2.0 mph 87% 0.10 in 18 W/m2
18:14 69.2 °F 65.5 °F 29.90 in Calm   1.0 mph 88% 0.15 in 18 W/m2
18:20 69.1 °F 65.4 °F 29.90 in Calm     88% 0.15 in 14 W/m2
18:26 69.0 °F 65.6 °F 29.91 in Calm     89% 0.14 in 12 W/m2
18:32 68.7 °F 65.3 °F 29.90 in Calm     89% 0.19 in 30 W/m2
18:38 68.5 °F 65.1 °F 29.89 in Calm   1.0 mph 89% 0.08 in 35 W/m2
18:44 68.3 °F 64.9 °F 29.90 in Calm     89% 0.05 in 46 W/m2
18:50 68.2 °F 65.2 °F 29.90 in Calm     90% 0.00 in 53 W/m2
18:56 68.5 °F 65.4 °F 29.89 in Calm     90% 0.00 in 67 W/m2
19:03 68.4 °F 65.4 °F 29.89 in Calm     90% 0.00 in 53 W/m2
19:08 68.4 °F 65.4 °F 29.89 in Calm     90% 0.00 in 51 W/m2
19:14 68.5 °F 65.4 °F 29.90 in Calm     90% 0.00 in 42 W/m2
19:20 68.5 °F 65.8 °F 29.90 in Calm     91% 0.00 in 28 W/m2
19:26 68.5 °F 65.4 °F 29.91 in Calm   1.0 mph 90% 0.00 in 51 W/m2
19:32 68.5 °F 65.8 °F 29.91 in Calm     91% 0.00 in 62 W/m2
19:38 68.6 °F 65.9 °F 29.91 in Calm   2.0 mph 91% 0.00 in 67 W/m2
19:44 68.6 °F 65.9 °F 29.91 in Calm   1.0 mph 91% 0.00 in 58 W/m2
19:50 68.5 °F 65.8 °F 29.91 in Calm     91% 0.00 in 62 W/m2
19:56 68.5 °F 65.8 °F 29.91 in Calm     91% 0.00 in 69 W/m2
20:02 68.5 °F 65.8 °F 29.91 in Calm     91% 0.00 in 49 W/m2
20:08 68.4 °F 65.7 °F 29.92 in Calm     91% 0.00 in 42 W/m2
20:14 68.2 °F 65.2 °F 29.92 in Calm     90% 0.00 in 32 W/m2
20:22 67.9 °F 64.9 °F 29.92 in Calm     90% 0.00 in 16 W/m2
20:28 67.8 °F 64.8 °F 29.92 in Calm     90% 0.00 in 11 W/m2
20:34 67.6 °F 64.6 °F 29.92 in Calm     90% 0.00 in 7 W/m2
20:40 67.3 °F 64.3 °F 29.92 in Calm     90% 0.00 in 0 W/m2
20:46 67.0 °F 64.0 °F 29.92 in Calm   1.0 mph 90% 0.00 in 0 W/m2
20:52 66.8 °F 64.1 °F 29.92 in Calm     91% 0.00 in 0 W/m2
20:58 66.8 °F 64.1 °F 29.92 in Calm   1.0 mph 91% 0.00 in 0 W/m2
21:04 66.8 °F 64.1 °F 29.93 in Calm   1.0 mph 91% 0.00 in 0 W/m2
21:10 66.7 °F 64.0 °F 29.93 in Calm     91% 0.00 in 0 W/m2
21:16 66.6 °F 63.9 °F 29.94 in Calm     91% 0.00 in 0 W/m2
21:22 66.4 °F 63.7 °F 29.94 in Calm     91% 0.00 in 0 W/m2
21:28 66.2 °F 63.5 °F 29.94 in Calm     91% 0.00 in 0 W/m2
21:34 66.0 °F 63.3 °F 29.94 in Calm     91% 0.00 in 0 W/m2
21:40 65.7 °F 63.0 °F 29.94 in Calm     91% 0.00 in 0 W/m2
21:46 65.5 °F 62.8 °F 29.94 in Calm     91% 0.00 in 0 W/m2
21:52 65.3 °F 62.6 °F 29.94 in Calm     91% 0.00 in 0 W/m2
21:58 65.0 °F 62.3 °F 29.94 in Calm     91% 0.00 in 0 W/m2
22:04 64.7 °F 62.0 °F 29.94 in Calm     91% 0.00 in 0 W/m2
22:14 64.3 °F 61.6 °F 29.95 in Calm     91% 0.00 in 0 W/m2
22:20 64.1 °F 61.4 °F 29.95 in Calm     91% 0.00 in 0 W/m2
22:26 63.8 °F 61.1 °F 29.95 in Calm     91% 0.00 in 0 W/m2
22:32 63.6 °F 60.9 °F 29.95 in Calm     91% 0.00 in 0 W/m2
22:38 63.4 °F 61.0 °F 29.95 in Calm     92% 0.00 in 0 W/m2
22:44 63.3 °F 60.9 °F 29.95 in Calm     92% 0.00 in 0 W/m2
22:50 63.1 °F 60.7 °F 29.95 in Calm     92% 0.00 in 0 W/m2
22:56 62.9 °F 60.5 °F 29.95 in Calm     92% 0.00 in 0 W/m2
23:02 62.7 °F 60.3 °F 29.95 in Calm     92% 0.00 in 0 W/m2
23:08 62.4 °F 60.0 °F 29.95 in Calm     92% 0.00 in 0 W/m2
23:14 62.2 °F 59.8 °F 29.95 in Calm     92% 0.00 in 0 W/m2
23:20 62.0 °F 59.6 °F 29.95 in Calm     92% 0.00 in 0 W/m2
23:26 61.9 °F 59.5 °F 29.95 in Calm     92% 0.00 in 0 W/m2
23:32 61.6 °F 59.3 °F 29.95 in Calm     92% 0.00 in 0 W/m2
23:38 61.4 °F 59.1 °F 29.95 in Calm     92% 0.00 in 0 W/m2
23:44 61.4 °F 59.1 °F 29.95 in Calm     92% 0.00 in 0 W/m2
23:50 61.4 °F 59.1 °F 29.95 in Calm     92% 0.00 in 0 W/m2
23:56 61.4 °F 59.1 °F 29.95 in Calm   2.0 mph 92% 0.00 in 0 W/m2
Country Meadow, Clay, NY, USA
Compliments of Weather Underground - 2 mb